createdAt,value
2023-04-16T00:00:09.865Z,73.59
2023-04-16T00:05:09.654Z,74.45
2023-04-16T00:10:03.196Z,75.65
2023-04-16T00:14:56.463Z,75.96
2023-04-16T00:19:50.971Z,76.55
2023-04-16T00:24:44.195Z,76.33
2023-04-16T00:29:37.348Z,76.75
2023-04-16T00:34:30.731Z,77.18
2023-04-16T00:39:25.260Z,78.24
2023-04-16T00:44:18.502Z,78.56
2023-04-16T00:49:11.828Z,78.78
2023-04-16T00:54:07.982Z,79.31
2023-04-16T00:59:02.866Z,80.24
2023-04-16T01:03:56.497Z,80.74
2023-04-16T01:08:51.884Z,81.24
2023-04-16T01:13:45.042Z,81.63
2023-04-16T01:18:40.228Z,81.28
2023-04-16T01:23:37.089Z,81.63
2023-04-16T01:28:30.491Z,81.52
2023-04-16T01:33:23.638Z,81.96
2023-04-16T01:38:18.806Z,82.56
2023-04-16T01:43:13.356Z,82.01
2023-04-16T01:48:07.095Z,82.39
2023-04-16T01:53:02.125Z,82.16
2023-04-16T01:57:55.694Z,81.81
2023-04-16T02:02:54.407Z,81.54
2023-04-16T02:07:52.512Z,81.34
2023-04-16T02:12:45.714Z,81.76
2023-04-16T02:17:40.320Z,81.90
2023-04-16T02:22:37.220Z,81.96
2023-04-16T02:27:30.988Z,81.78
2023-04-16T02:32:36.253Z,82.57
2023-04-16T02:37:30.006Z,84.32
2023-04-16T02:42:24.766Z,84.89
2023-04-16T02:47:18.245Z,85.51
2023-04-16T02:52:11.712Z,86.01
2023-04-16T02:57:06.248Z,86.85
2023-04-16T03:02:03.038Z,88.73
2023-04-16T03:06:56.315Z,87.46
2023-04-16T03:11:49.447Z,85.66
2023-04-16T03:16:42.707Z,84.33
2023-04-16T03:21:37.262Z,82.90
2023-04-16T03:26:30.738Z,82.50
2023-04-16T03:31:25.481Z,81.90
2023-04-16T03:36:19.923Z,81.05
2023-04-16T03:41:15.450Z,81.03
2023-04-16T03:46:11.370Z,80.72
2023-04-16T03:51:04.800Z,80.61
2023-04-16T03:55:59.727Z,80.47
2023-04-16T04:00:57.355Z,80.40
2023-04-16T04:05:51.548Z,80.18
2023-04-16T04:10:56.553Z,80.33
2023-04-16T04:15:53.935Z,80.25
2023-04-16T04:20:49.922Z,81.43
2023-04-16T04:25:46.241Z,80.93
2023-04-16T04:30:40.092Z,80.79
2023-04-16T04:35:33.475Z,80.62
2023-04-16T04:40:28.829Z,80.68
2023-04-16T04:45:25.505Z,80.75
2023-04-16T04:50:20.589Z,80.75
2023-04-16T04:55:15.893Z,80.34
2023-04-16T05:00:11.614Z,80.33
2023-04-16T05:05:15.631Z,80.32
2023-04-16T05:10:10.377Z,80.97
2023-04-16T05:15:05.932Z,81.12
2023-04-16T05:20:01.985Z,81.18
2023-04-16T05:24:55.394Z,81.31
2023-04-16T05:29:48.686Z,80.38
2023-04-16T05:34:41.910Z,79.27
2023-04-16T05:39:36.436Z,79.22
2023-04-16T05:44:29.660Z,78.98
2023-04-16T05:49:22.749Z,78.64
2023-04-16T05:54:16.052Z,78.26
2023-04-16T05:59:10.881Z,78.02
2023-04-16T06:04:04.202Z,77.94
2023-04-16T06:08:57.457Z,77.24
2023-04-16T06:13:50.560Z,75.80
2023-04-16T06:18:45.256Z,75.37
2023-04-16T06:23:38.339Z,75.15
2023-04-16T06:28:31.503Z,74.68
2023-04-16T06:33:24.907Z,74.28
2023-04-16T06:38:20.108Z,73.45
2023-04-16T06:43:13.334Z,73.19
2023-04-16T06:48:06.903Z,72.75
2023-04-16T06:53:00.268Z,72.02
2023-04-16T06:57:54.792Z,71.92
2023-04-16T07:02:48.115Z,72.18
2023-04-16T07:07:42.541Z,72.16
2023-04-16T07:12:35.855Z,71.31
2023-04-16T07:17:32.405Z,70.20
2023-04-16T07:22:25.636Z,69.80
2023-04-16T07:27:18.852Z,68.72
2023-04-16T07:32:13.379Z,68.66
2023-04-16T07:37:09.737Z,68.75
2023-04-16T07:42:02.950Z,68.08
2023-04-16T07:46:56.040Z,67.25
2023-04-16T07:51:49.218Z,65.96
2023-04-16T07:56:43.718Z,65.01
2023-04-16T08:01:36.894Z,65.77
2023-04-16T08:06:30.254Z,61.45
2023-04-16T08:11:23.414Z,59.42
2023-04-16T08:16:18.077Z,58.62
2023-04-16T08:21:11.344Z,59.92
2023-04-16T08:26:04.537Z,55.79
2023-04-16T08:30:59.769Z,54.62
2023-04-16T08:35:54.602Z,50.47
2023-04-16T08:40:49.722Z,48.05
2023-04-16T08:45:46.532Z,45.60
2023-04-16T08:50:42.172Z,45.12
2023-04-16T08:55:41.883Z,45.41
2023-04-16T09:00:39.466Z,44.56
2023-04-16T09:05:34.481Z,39.98
2023-04-16T09:10:28.445Z,38.32
2023-04-16T09:15:23.783Z,38.50
2023-04-16T09:20:17.084Z,38.01
2023-04-16T09:25:13.078Z,38.60
2023-04-16T09:30:21.985Z,39.00
2023-04-16T09:35:16.760Z,37.72
2023-04-16T09:40:10.972Z,36.18
2023-04-16T09:45:06.173Z,38.57
2023-04-16T09:50:00.403Z,39.94
2023-04-16T09:54:55.360Z,40.97
2023-04-16T09:59:48.772Z,40.24
2023-04-16T10:04:50.810Z,41.73
2023-04-16T10:09:46.791Z,40.35
2023-04-16T10:14:42.074Z,41.37
2023-04-16T10:19:36.592Z,40.98
2023-04-16T10:24:31.272Z,42.09
2023-04-16T10:29:26.211Z,40.57
2023-04-16T10:34:22.751Z,41.53
2023-04-16T10:39:24.716Z,41.56
2023-04-16T10:44:23.106Z,42.95
2023-04-16T10:49:21.343Z,42.23
2023-04-16T10:54:26.560Z,44.07
2023-04-16T10:59:21.060Z,45.19
2023-04-16T11:04:45.087Z,48.54
2023-04-16T11:09:53.071Z,52.21
2023-04-16T11:14:50.112Z,53.13
2023-04-16T11:19:44.230Z,50.71
2023-04-16T11:24:42.262Z,49.90
2023-04-16T11:29:37.169Z,50.17
2023-04-16T11:34:30.774Z,51.99
2023-04-16T11:39:24.517Z,53.75
2023-04-16T11:44:22.589Z,55.29
2023-04-16T11:49:17.961Z,56.38
2023-04-16T11:54:14.124Z,56.37
2023-04-16T11:59:15.631Z,56.96
2023-04-16T12:04:10.387Z,57.63
2023-04-16T12:09:27.337Z,57.41
2023-04-16T12:14:20.769Z,58.99
2023-04-16T12:19:14.499Z,60.39
2023-04-16T12:24:09.916Z,61.61
2023-04-16T12:29:20.695Z,61.20
2023-04-16T12:34:15.295Z,57.24
2023-04-16T12:39:10.945Z,55.01
2023-04-16T12:44:06.881Z,54.52
2023-04-16T12:49:01.407Z,54.09
2023-04-16T12:53:56.759Z,52.83
2023-04-16T12:58:52.092Z,52.87
2023-04-16T13:03:45.361Z,53.35
2023-04-16T13:08:40.114Z,53.35
2023-04-16T13:13:33.246Z,49.91
2023-04-16T13:18:27.281Z,48.02
2023-04-16T13:23:20.437Z,47.06
2023-04-16T13:28:14.959Z,46.63
2023-04-16T13:33:11.972Z,45.82
2023-04-16T13:38:06.016Z,53.53
2023-04-16T13:42:59.176Z,57.46
2023-04-16T13:47:53.774Z,59.39
2023-04-16T13:52:46.949Z,62.25
2023-04-16T13:57:40.469Z,65.32
2023-04-16T14:02:34.972Z,66.28
2023-04-16T14:07:29.637Z,65.96
2023-04-16T14:12:23.729Z,59.65
2023-04-16T14:17:16.897Z,55.91
2023-04-16T14:22:09.964Z,53.47
2023-04-16T14:27:04.493Z,50.53
2023-04-16T14:31:57.857Z,53.12
2023-04-16T14:36:52.059Z,56.30
2023-04-16T14:41:45.371Z,60.13
2023-04-16T14:46:41.154Z,63.23
2023-04-16T14:51:35.506Z,63.50
2023-04-16T14:56:28.582Z,64.54
2023-04-16T15:01:21.840Z,66.50
2023-04-16T15:06:17.335Z,66.06
2023-04-16T15:11:10.614Z,65.68
2023-04-16T15:16:04.549Z,65.05
2023-04-16T15:20:57.721Z,66.09
2023-04-16T15:25:52.212Z,66.40
2023-04-16T15:30:45.615Z,67.59
2023-04-16T15:35:41.331Z,69.06
2023-04-16T15:40:34.720Z,68.07
2023-04-16T15:45:29.332Z,68.74
2023-04-16T15:50:22.667Z,69.20
2023-04-16T15:55:16.445Z,69.83
2023-04-16T16:00:15.938Z,70.60
2023-04-16T16:05:15.222Z,71.58
2023-04-16T16:10:09.893Z,72.97
2023-04-16T16:15:03.430Z,74.25
2023-04-16T16:19:57.834Z,74.86
2023-04-16T16:24:53.250Z,75.58
2023-04-16T16:29:46.475Z,76.23
2023-04-16T16:34:40.281Z,76.08
2023-04-16T16:39:33.992Z,76.24
2023-04-16T16:44:29.044Z,76.99
2023-04-16T16:49:22.294Z,77.13
2023-04-16T16:54:16.355Z,77.67
2023-04-16T16:59:10.219Z,78.24
2023-04-16T17:04:05.436Z,79.12
2023-04-16T17:08:58.604Z,80.56
2023-04-16T17:13:51.750Z,82.25
2023-04-16T17:18:44.945Z,83.95
2023-04-16T17:23:41.107Z,85.21
2023-04-16T17:28:37.277Z,86.33
2023-04-16T17:33:30.571Z,87.38
2023-04-16T17:38:23.710Z,87.95
2023-04-16T17:43:18.285Z,87.89
2023-04-16T17:48:12.660Z,88.16
2023-04-16T17:53:06.155Z,88.39
2023-04-16T17:58:02.321Z,88.47
2023-04-16T18:02:58.555Z,89.10
2023-04-16T18:07:51.879Z,89.13
2023-04-16T18:12:45.176Z,89.30
2023-04-16T18:17:42.423Z,89.98
2023-04-16T18:22:37.494Z,90.83
2023-04-16T18:27:33.669Z,91.26
2023-04-16T18:32:30.883Z,92.01
2023-04-16T18:37:31.958Z,92.38
2023-04-16T18:42:29.437Z,93.16
2023-04-16T18:47:23.015Z,93.38
2023-04-16T18:52:19.890Z,93.52
2023-04-16T18:57:13.252Z,93.86
2023-04-16T19:02:09.074Z,94.12
2023-04-16T19:07:10.819Z,94.47
2023-04-16T19:12:04.971Z,94.86
2023-04-16T19:17:08.284Z,94.90
2023-04-16T19:22:10.832Z,95.23
2023-04-16T19:27:04.347Z,95.84
2023-04-16T19:31:59.971Z,96.20
2023-04-16T19:36:53.608Z,96.09
2023-04-16T19:41:48.403Z,95.73
2023-04-16T19:46:41.695Z,95.47
2023-04-16T19:51:34.876Z,95.28
2023-04-16T19:56:28.130Z,95.08
2023-04-16T20:01:23.467Z,95.02
2023-04-16T20:06:18.720Z,94.58
2023-04-16T20:11:22.664Z,94.59
2023-04-16T20:16:16.102Z,94.54
2023-04-16T20:21:11.296Z,94.47
2023-04-16T20:26:17.238Z,94.69
2023-04-16T20:31:14.245Z,94.77
2023-04-16T20:36:13.948Z,94.88
2023-04-16T20:41:12.338Z,94.70
2023-04-16T20:46:06.296Z,94.72
2023-04-16T20:51:00.985Z,94.90
2023-04-16T20:55:57.404Z,95.09
2023-04-16T21:00:53.445Z,95.04
2023-04-16T21:05:50.492Z,94.85
2023-04-16T21:10:44.077Z,94.93
2023-04-16T21:15:38.975Z,95.01
2023-04-16T21:20:32.376Z,95.17
2023-04-16T21:25:25.901Z,95.26
2023-04-16T21:30:26.822Z,95.49
2023-04-16T21:35:27.053Z,95.62
2023-04-16T21:40:20.147Z,95.59
2023-04-16T21:45:14.644Z,96.04
2023-04-16T21:50:09.032Z,95.53
2023-04-16T21:55:05.094Z,96.09
2023-04-16T21:59:58.379Z,96.25
2023-04-16T22:04:51.662Z,96.21
2023-04-16T22:09:47.811Z,96.88
2023-04-16T22:14:52.135Z,96.44
2023-04-16T22:19:55.298Z,96.52
2023-04-16T22:24:48.566Z,96.79
2023-04-16T22:29:43.343Z,97.49
2023-04-16T22:34:36.647Z,98.00
2023-04-16T22:39:32.534Z,97.58
2023-04-16T22:44:26.856Z,98.13
2023-04-16T22:49:21.660Z,98.20
2023-04-16T22:54:15.010Z,98.48
2023-04-16T22:59:09.137Z,98.91
2023-04-16T23:04:02.613Z,99.27
2023-04-16T23:08:57.221Z,99.24
2023-04-16T23:13:50.486Z,99.20
2023-04-16T23:18:43.649Z,99.66
2023-04-16T23:23:39.552Z,99.96
2023-04-16T23:28:37.296Z,100.00
2023-04-16T23:33:31.631Z,100.00
2023-04-16T23:38:25.212Z,100.00
2023-04-16T23:43:18.438Z,100.00
2023-04-16T23:48:17.644Z,100.00
2023-04-16T23:53:13.119Z,100.00
2023-04-16T23:58:06.475Z,100.00
